Time;durP1;ratioP1;P1;durP2;ratioP2;P2;SDS_P1;SDS_P2;PMS_P1;PMS_P2;Temp;Humidity;BMP_temperature;BMP_pressure;BME280_temperature;BME280_humidity;BME280_pressure;Samples;Min_cycle;Max_cycle;Signal;HPM_P1;HPM_P2
2022/10/03 00:01:17;;;;;;;10.30;3.40;;;;;;;;;;4985581;28;20413;-82
2022/10/03 00:03:51;;;;;;;10.18;2.88;;;;;;;;;;4991119;28;20430;-81
2022/10/03 00:06:25;;;;;;;11.80;3.20;;;;;;;;;;4986087;28;20407;-82
2022/10/03 00:09:04;;;;;;;10.00;2.90;;;;;;;;;;4986432;28;20430;-82
2022/10/03 00:11:36;;;;;;;15.77;3.30;;;;;;;;;;4986678;28;20424;-82
2022/10/03 00:14:06;;;;;;;10.60;3.30;;;;;;;;;;4989085;28;20437;-82
2022/10/03 00:16:38;;;;;;;9.80;3.80;;;;;;;;;;5016515;28;20420;-82
2022/10/03 00:19:11;;;;;;;11.35;3.70;;;;;;;;;;4988568;28;20422;-82
2022/10/03 00:21:43;;;;;;;13.40;4.00;;;;;;;;;;4983287;28;20993;-81
2022/10/03 00:24:16;;;;;;;11.68;3.30;;;;;;;;;;4987012;28;20423;-81
2022/10/03 00:26:45;;;;;;;10.02;3.20;;;;;;;;;;4989263;28;20421;-81
2022/10/03 00:29:19;;;;;;;11.57;3.08;;;;;;;;;;4988107;28;20424;-81
2022/10/03 00:31:50;;;;;;;10.13;2.90;;;;;;;;;;4988671;28;20431;-82
2022/10/03 00:34:23;;;;;;;11.88;3.70;;;;;;;;;;4986923;28;20796;-82
2022/10/03 00:36:51;;;;;;;11.55;3.05;;;;;;;;;;4987511;28;20425;-81
2022/10/03 00:39:29;;;;;;;11.32;3.50;;;;;;;;;;5017086;28;20427;-81
2022/10/03 00:42:14;;;;;;;12.73;3.08;;;;;;;;;;4987164;28;20423;-81
2022/10/03 00:45:01;;;;;;;11.60;3.40;;;;;;;;;;4987683;28;20445;-81
2022/10/03 00:47:45;;;;;;;9.43;2.83;;;;;;;;;;4989211;28;20432;-81
2022/10/03 00:50:39;;;;;;;14.18;4.20;;;;;;;;;;5019379;28;20418;-81
2022/10/03 00:53:18;;;;;;;17.58;3.65;;;;;;;;;;4987129;28;20426;-83
2022/10/03 00:55:53;;;;;;;13.75;3.28;;;;;;;;;;4985078;28;20511;-83
2022/10/03 00:58:28;;;;;;;12.50;3.40;;;;;;;;;;4984467;28;20435;-82
2022/10/03 01:00:59;;;;;;;16.70;2.87;;;;;;;;;;4987528;28;20488;-83
2022/10/03 01:03:34;;;;;;;8.93;3.00;;;;;;;;;;4988195;28;20418;-82
2022/10/03 01:06:16;;;;;;;13.48;3.30;;;;;;;;;;4986631;28;20430;-82
2022/10/03 01:08:57;;;;;;;11.43;3.47;;;;;;;;;;4986386;28;20430;-85
2022/10/03 01:11:29;;;;;;;12.87;3.10;;;;;;;;;;4999015;28;20416;-83
2022/10/03 01:14:03;;;;;;;13.60;3.08;;;;;;;;;;4983742;28;20420;-82
2022/10/03 01:16:36;;;;;;;12.68;2.97;;;;;;;;;;4985535;28;20439;-82
2022/10/03 01:19:08;;;;;;;15.65;3.38;;;;;;;;;;4985678;28;20438;-83
2022/10/03 01:21:41;;;;;;;11.07;2.70;;;;;;;;;;4984738;28;20448;-83
2022/10/03 01:24:31;;;;;;;11.88;3.00;;;;;;;;;;4987051;28;20435;-82
2022/10/03 01:27:04;;;;;;;12.73;3.30;;;;;;;;;;4983134;28;20806;-83
2022/10/03 01:32:41;;;;;;;13.15;3.00;;;;;;;;;;4969785;28;20863;-82
2022/10/03 01:35:14;;;;;;;11.57;3.03;;;;;;;;;;4984739;28;20427;-81
2022/10/03 01:37:48;;;;;;;14.00;3.70;;;;;;;;;;4981449;28;20424;-81
2022/10/03 01:40:18;;;;;;;14.38;3.80;;;;;;;;;;4985773;28;20487;-83
2022/10/03 01:42:54;;;;;;;13.60;2.90;;;;;;;;;;4983121;28;20511;-80
2022/10/03 01:45:26;;;;;;;12.25;3.30;;;;;;;;;;4986234;28;20516;-82
2022/10/03 01:47:57;;;;;;;13.27;3.50;;;;;;;;;;4982426;28;20441;-80
2022/10/03 01:50:29;;;;;;;11.63;3.25;;;;;;;;;;4987354;28;20962;-81
2022/10/03 01:53:00;;;;;;;13.07;3.10;;;;;;;;;;4985158;28;20424;-81
2022/10/03 01:55:31;;;;;;;16.52;2.95;;;;;;;;;;4985749;28;20480;-81
2022/10/03 01:57:59;;;;;;;13.38;3.78;;;;;;;;;;4986572;28;20454;-81
2022/10/03 02:00:26;;;;;;;9.95;3.20;;;;;;;;;;4985694;28;20414;-81
2022/10/03 02:03:00;;;;;;;9.48;3.10;;;;;;;;;;4984889;28;20525;-81
2022/10/03 02:05:37;;;;;;;10.00;3.00;;;;;;;;;;4985177;28;20427;-81
2022/10/03 02:08:05;;;;;;;11.82;3.58;;;;;;;;;;4982562;28;20870;-82
2022/10/03 02:10:36;;;;;;;10.80;3.33;;;;;;;;;;4985435;28;20511;-83
2022/10/03 02:13:09;;;;;;;15.82;3.55;;;;;;;;;;4984835;28;20453;-81
2022/10/03 02:15:45;;;;;;;10.48;3.47;;;;;;;;;;4983671;28;20424;-81
2022/10/03 02:18:14;;;;;;;12.68;3.38;;;;;;;;;;4983587;28;20439;-81
2022/10/03 02:20:44;;;;;;;15.95;3.65;;;;;;;;;;4985947;28;21017;-79
2022/10/03 02:23:22;;;;;;;10.65;2.60;;;;;;;;;;4984270;28;20446;-83
2022/10/03 02:25:53;;;;;;;15.02;3.00;;;;;;;;;;4982267;28;20426;-80
2022/10/03 02:28:29;;;;;;;16.58;3.60;;;;;;;;;;4984263;28;20422;-83
2022/10/03 02:31:14;;;;;;;15.57;3.33;;;;;;;;;;4985125;28;20522;-82
2022/10/03 02:34:01;;;;;;;13.60;2.60;;;;;;;;;;4983990;28;20454;-82
2022/10/03 02:36:39;;;;;;;15.77;3.45;;;;;;;;;;5018431;28;20426;-80
2022/10/03 02:39:29;;;;;;;9.18;2.92;;;;;;;;;;4982965;28;20416;-83
2022/10/03 02:42:24;;;;;;;11.10;2.75;;;;;;;;;;4964316;28;20428;-83
2022/10/03 02:45:02;;;;;;;11.43;2.85;;;;;;;;;;4981500;28;20427;-83
2022/10/03 02:47:42;;;;;;;11.80;3.10;;;;;;;;;;4984971;28;20481;-82
2022/10/03 02:50:27;;;;;;;12.40;2.50;;;;;;;;;;4985808;28;20512;-82
2022/10/03 02:53:17;;;;;;;9.90;2.65;;;;;;;;;;4984690;28;20424;-83
2022/10/03 02:55:57;;;;;;;9.45;2.53;;;;;;;;;;4984178;28;20421;-82
2022/10/03 02:58:45;;;;;;;11.15;3.25;;;;;;;;;;4984832;28;20471;-82
2022/10/03 03:01:35;;;;;;;12.70;2.87;;;;;;;;;;4983679;28;20471;-83
2022/10/03 03:04:25;;;;;;;10.80;3.20;;;;;;;;;;4981432;28;20440;-83
2022/10/03 03:07:04;;;;;;;10.03;2.67;;;;;;;;;;4986493;28;20426;-82
2022/10/03 03:09:52;;;;;;;18.83;3.47;;;;;;;;;;4987586;28;20446;-83
2022/10/03 03:12:31;;;;;;;10.73;3.00;;;;;;;;;;4988188;28;20419;-82
2022/10/03 03:15:22;;;;;;;13.13;3.03;;;;;;;;;;4988027;28;20474;-83
2022/10/03 03:17:56;;;;;;;8.85;2.60;;;;;;;;;;4987524;28;20475;-83
2022/10/03 03:20:32;;;;;;;12.80;2.88;;;;;;;;;;4988048;28;20420;-82
2022/10/03 03:23:07;;;;;;;8.25;2.47;;;;;;;;;;4989531;28;20447;-83
2022/10/03 03:25:43;;;;;;;14.07;3.10;;;;;;;;;;4985086;28;20422;-83
2022/10/03 03:28:18;;;;;;;10.55;2.90;;;;;;;;;;4971092;28;20424;-82
2022/10/03 03:30:48;;;;;;;7.22;2.60;;;;;;;;;;4968608;28;20906;-82
2022/10/03 03:33:22;;;;;;;12.02;3.00;;;;;;;;;;4989029;28;20464;-81
2022/10/03 03:35:54;;;;;;;6.63;2.50;;;;;;;;;;4991316;28;20422;-83
2022/10/03 03:38:29;;;;;;;14.57;3.00;;;;;;;;;;4966302;28;20422;-83
2022/10/03 03:41:02;;;;;;;10.48;2.83;;;;;;;;;;4970526;28;20478;-83
2022/10/03 03:43:38;;;;;;;10.98;2.90;;;;;;;;;;4986097;28;20416;-83
2022/10/03 03:46:15;;;;;;;10.87;3.00;;;;;;;;;;4983827;28;20402;-80
2022/10/03 03:49:00;;;;;;;9.15;2.50;;;;;;;;;;4989089;28;20432;-82
2022/10/03 03:51:33;;;;;;;17.10;3.40;;;;;;;;;;4988517;28;20430;-83
2022/10/03 03:54:18;;;;;;;12.77;2.80;;;;;;;;;;4987159;28;20463;-82
2022/10/03 03:57:02;;;;;;;9.45;2.72;;;;;;;;;;4973634;28;20414;-82
2022/10/03 03:59:36;;;;;;;8.82;2.72;;;;;;;;;;4987476;28;20424;-83
2022/10/03 04:02:14;;;;;;;12.35;3.50;;;;;;;;;;4986529;28;20469;-82
2022/10/03 04:04:50;;;;;;;14.25;3.30;;;;;;;;;;4988951;28;20419;-83
2022/10/03 04:07:21;;;;;;;14.73;2.85;;;;;;;;;;4986315;28;20455;-82
2022/10/03 04:10:00;;;;;;;8.65;2.72;;;;;;;;;;4989070;28;20420;-83
2022/10/03 04:12:37;;;;;;;8.30;3.00;;;;;;;;;;4984565;28;20424;-82
2022/10/03 04:15:12;;;;;;;7.47;2.50;;;;;;;;;;4987433;28;20429;-82
2022/10/03 04:20:43;;;;;;;18.63;3.67;;;;;;;;;;4989335;28;20498;-81
2022/10/03 04:23:19;;;;;;;16.10;2.80;;;;;;;;;;4988768;28;20896;-82
2022/10/03 04:25:53;;;;;;;14.80;3.08;;;;;;;;;;4990009;28;20422;-81
2022/10/03 04:28:33;;;;;;;14.25;2.78;;;;;;;;;;4988744;28;20426;-80
2022/10/03 04:31:05;;;;;;;15.90;3.00;;;;;;;;;;4985756;28;20846;-82
2022/10/03 04:33:40;;;;;;;12.15;3.22;;;;;;;;;;4988379;28;20430;-83
2022/10/03 04:36:29;;;;;;;17.88;3.90;;;;;;;;;;4986565;28;20414;-83
2022/10/03 04:38:59;;;;;;;11.48;3.08;;;;;;;;;;4986325;28;20446;-82
2022/10/03 04:41:29;;;;;;;11.13;3.15;;;;;;;;;;4983446;28;20420;-83
2022/10/03 04:44:02;;;;;;;12.05;3.28;;;;;;;;;;4986072;28;20424;-83
2022/10/03 04:46:33;;;;;;;10.83;2.97;;;;;;;;;;4984560;28;21010;-83
2022/10/03 04:49:03;;;;;;;13.35;2.92;;;;;;;;;;4985887;28;20424;-83
2022/10/03 04:51:40;;;;;;;11.18;2.72;;;;;;;;;;4985077;28;20422;-83
2022/10/03 04:54:15;;;;;;;19.40;4.00;;;;;;;;;;4985929;28;20939;-83
2022/10/03 04:56:44;;;;;;;14.83;2.90;;;;;;;;;;4987945;28;20481;-83
2022/10/03 04:59:21;;;;;;;9.63;3.03;;;;;;;;;;4985498;28;20427;-83
2022/10/03 05:01:50;;;;;;;17.57;3.30;;;;;;;;;;4984963;28;20432;-83
2022/10/03 05:04:24;;;;;;;12.03;2.87;;;;;;;;;;4984174;28;20423;-82
2022/10/03 05:06:55;;;;;;;13.68;3.45;;;;;;;;;;4988120;28;20511;-82
2022/10/03 05:09:24;;;;;;;11.20;3.28;;;;;;;;;;4989073;28;20414;-81
2022/10/03 05:11:56;;;;;;;11.40;2.97;;;;;;;;;;4986005;28;20436;-82
2022/10/03 05:14:27;;;;;;;10.77;2.90;;;;;;;;;;4984460;28;20542;-82
2022/10/03 05:17:00;;;;;;;11.23;3.10;;;;;;;;;;4987789;28;20429;-82
2022/10/03 05:19:45;;;;;;;13.38;2.88;;;;;;;;;;4985183;28;20423;-83
2022/10/03 05:22:17;;;;;;;12.68;3.45;;;;;;;;;;4987800;28;20511;-83
2022/10/03 05:24:48;;;;;;;8.65;2.92;;;;;;;;;;4987137;28;20789;-83
2022/10/03 05:27:19;;;;;;;9.68;2.50;;;;;;;;;;4986723;28;20775;-82
2022/10/03 05:29:56;;;;;;;12.13;2.80;;;;;;;;;;4985546;28;20463;-83
2022/10/03 05:32:25;;;;;;;15.55;3.40;;;;;;;;;;4985605;28;20426;-82
2022/10/03 05:34:59;;;;;;;11.52;3.08;;;;;;;;;;4984454;28;20432;-82
2022/10/03 05:37:50;;;;;;;12.50;2.95;;;;;;;;;;4985978;28;20428;-83
2022/10/03 05:40:18;;;;;;;8.48;2.85;;;;;;;;;;4982607;28;20920;-82
2022/10/03 05:43:00;;;;;;;10.55;2.92;;;;;;;;;;4985604;28;20505;-82
2022/10/03 05:45:31;;;;;;;11.40;3.22;;;;;;;;;;4985291;28;20426;-82
2022/10/03 05:48:10;;;;;;;14.05;3.15;;;;;;;;;;4984232;28;20422;-82
2022/10/03 05:50:49;;;;;;;15.48;3.60;;;;;;;;;;4984695;28;20453;-82
2022/10/03 05:53:29;;;;;;;13.07;2.70;;;;;;;;;;4984884;28;20830;-82
2022/10/03 05:56:04;;;;;;;10.75;3.13;;;;;;;;;;4984921;28;20429;-82
2022/10/03 05:58:33;;;;;;;13.85;3.17;;;;;;;;;;4986576;28;20508;-82
2022/10/03 06:01:16;;;;;;;10.82;2.90;;;;;;;;;;4985109;28;20427;-82
2022/10/03 06:03:56;;;;;;;14.37;3.30;;;;;;;;;;4986019;28;20427;-82
2022/10/03 06:06:29;;;;;;;15.90;3.15;;;;;;;;;;4986561;28;20421;-82
2022/10/03 06:09:05;;;;;;;12.13;3.40;;;;;;;;;;4998989;28;20458;-82
2022/10/03 06:11:39;;;;;;;10.80;2.90;;;;;;;;;;4986937;28;20418;-82
2022/10/03 06:14:18;;;;;;;13.30;3.50;;;;;;;;;;4984601;28;20438;-82
2022/10/03 06:16:53;;;;;;;11.50;3.53;;;;;;;;;;4986186;28;20429;-82
2022/10/03 06:19:28;;;;;;;17.20;3.50;;;;;;;;;;4986616;28;20423;-82
2022/10/03 06:22:17;;;;;;;15.05;3.50;;;;;;;;;;4985776;28;20451;-81
2022/10/03 06:25:10;;;;;;;12.57;3.50;;;;;;;;;;4984492;28;20438;-82
2022/10/03 06:27:51;;;;;;;12.90;3.13;;;;;;;;;;4986442;28;20426;-82
2022/10/03 06:30:20;;;;;;;9.70;3.00;;;;;;;;;;4983386;28;20901;-82
2022/10/03 06:33:05;;;;;;;13.63;3.65;;;;;;;;;;4983794;28;20419;-82
2022/10/03 06:35:59;;;;;;;19.50;3.63;;;;;;;;;;4986659;28;20420;-82
2022/10/03 06:38:59;;;;;;;11.88;3.63;;;;;;;;;;4981341;28;20421;-82
2022/10/03 06:41:44;;;;;;;12.77;3.55;;;;;;;;;;4984256;28;20798;-82
2022/10/03 06:44:30;;;;;;;10.35;3.30;;;;;;;;;;4989654;28;20814;-82
2022/10/03 06:47:15;;;;;;;14.23;3.40;;;;;;;;;;4988073;28;20430;-82
2022/10/03 06:50:00;;;;;;;11.15;3.20;;;;;;;;;;5018425;28;20424;-82
2022/10/03 06:52:41;;;;;;;15.57;3.67;;;;;;;;;;4989763;28;20942;-81
2022/10/03 06:55:22;;;;;;;12.93;3.80;;;;;;;;;;4986899;28;20432;-81
2022/10/03 06:58:03;;;;;;;14.32;3.50;;;;;;;;;;4987408;28;20430;-81
2022/10/03 07:00:38;;;;;;;12.63;3.35;;;;;;;;;;4987339;28;20460;-82
2022/10/03 07:03:23;;;;;;;13.88;3.40;;;;;;;;;;4987148;28;20924;-81
2022/10/03 07:05:59;;;;;;;11.70;3.83;;;;;;;;;;4988151;28;20421;-82
2022/10/03 07:08:46;;;;;;;14.70;3.38;;;;;;;;;;4988158;28;20425;-82
2022/10/03 07:11:33;;;;;;;13.38;3.70;;;;;;;;;;4988573;28;20419;-82
2022/10/03 07:14:17;;;;;;;10.97;3.13;;;;;;;;;;4989583;28;20876;-81
2022/10/03 07:17:05;;;;;;;17.52;4.00;;;;;;;;;;4984991;28;20424;-81
2022/10/03 07:19:52;;;;;;;11.40;3.22;;;;;;;;;;4986415;28;20416;-82
2022/10/03 07:22:40;;;;;;;12.63;2.83;;;;;;;;;;5020758;28;20990;-82
2022/10/03 07:25:27;;;;;;;12.32;3.20;;;;;;;;;;4987787;28;20414;-83
2022/10/03 07:28:10;;;;;;;15.20;3.50;;;;;;;;;;4988391;28;20422;-82
2022/10/03 07:30:48;;;;;;;13.82;3.03;;;;;;;;;;4987499;28;21047;-82
2022/10/03 07:33:35;;;;;;;13.25;3.20;;;;;;;;;;4969315;28;20794;-82
2022/10/03 07:39:16;;;;;;;12.65;3.63;;;;;;;;;;4971037;28;20503;-82
2022/10/03 07:41:50;;;;;;;13.40;2.90;;;;;;;;;;4976050;28;20922;-82
2022/10/03 07:44:31;;;;;;;15.50;3.70;;;;;;;;;;4984962;28;20420;-82
2022/10/03 07:47:17;;;;;;;7.15;3.30;;;;;;;;;;4984450;28;20509;-82
2022/10/03 07:50:02;;;;;;;12.90;3.50;;;;;;;;;;4987202;28;20422;-82
2022/10/03 07:52:46;;;;;;;12.00;3.53;;;;;;;;;;4986928;28;20424;-81
2022/10/03 07:55:27;;;;;;;12.82;3.70;;;;;;;;;;4989747;28;20441;-82
2022/10/03 07:58:04;;;;;;;9.85;2.88;;;;;;;;;;4986301;28;20419;-81
2022/10/03 08:00:40;;;;;;;10.95;2.97;;;;;;;;;;4984208;28;20449;-83
2022/10/03 08:03:25;;;;;;;12.63;2.83;;;;;;;;;;4988037;28;20428;-83
2022/10/03 08:06:00;;;;;;;13.07;3.00;;;;;;;;;;4986999;28;20525;-82
2022/10/03 08:08:42;;;;;;;12.25;2.95;;;;;;;;;;4987998;28;20967;-82
2022/10/03 08:11:24;;;;;;;13.13;2.70;;;;;;;;;;4987520;28;20418;-82
2022/10/03 08:13:59;;;;;;;11.25;2.90;;;;;;;;;;4979570;28;20433;-81
2022/10/03 08:16:36;;;;;;;8.88;2.80;;;;;;;;;;4985498;28;20432;-82
2022/10/03 08:19:11;;;;;;;10.65;2.70;;;;;;;;;;4986049;28;20487;-82
2022/10/03 08:21:45;;;;;;;11.20;2.80;;;;;;;;;;4986552;28;20430;-83
2022/10/03 08:24:24;;;;;;;10.75;2.70;;;;;;;;;;4986007;28;20920;-83
2022/10/03 08:26:57;;;;;;;10.32;2.50;;;;;;;;;;4985889;28;20514;-83
2022/10/03 08:29:36;;;;;;;8.98;2.60;;;;;;;;;;4986086;28;20415;-83
2022/10/03 08:32:31;;;;;;;11.10;3.03;;;;;;;;;;4985884;28;20427;-83
2022/10/03 08:35:15;;;;;;;12.68;3.50;;;;;;;;;;4985718;28;20936;-80
2022/10/03 08:38:06;;;;;;;13.52;2.75;;;;;;;;;;4983646;28;20424;-82
2022/10/03 08:40:53;;;;;;;11.85;2.83;;;;;;;;;;4975514;28;20509;-82
2022/10/03 08:43:34;;;;;;;13.57;2.80;;;;;;;;;;4986556;28;20535;-83
2022/10/03 08:46:12;;;;;;;12.48;2.60;;;;;;;;;;4983319;28;20884;-83
2022/10/03 08:48:57;;;;;;;9.25;2.70;;;;;;;;;;4982090;28;20418;-83
2022/10/03 08:51:39;;;;;;;8.07;2.30;;;;;;;;;;4984837;28;20422;-82
2022/10/03 08:54:15;;;;;;;11.90;2.42;;;;;;;;;;4986703;28;20430;-80
2022/10/03 08:57:00;;;;;;;11.77;3.00;;;;;;;;;;4985164;28;20426;-82
2022/10/03 08:59:43;;;;;;;8.23;2.75;;;;;;;;;;4979003;28;20435;-83
2022/10/03 09:02:29;;;;;;;12.85;3.50;;;;;;;;;;4984732;28;20503;-82
2022/10/03 09:05:17;;;;;;;14.93;2.97;;;;;;;;;;4998496;28;20447;-82
2022/10/03 09:07:55;;;;;;;10.38;2.40;;;;;;;;;;4982887;28;20458;-82
2022/10/03 09:10:33;;;;;;;13.38;2.90;;;;;;;;;;4980269;28;20478;-83
2022/10/03 09:13:16;;;;;;;11.52;2.90;;;;;;;;;;4983157;28;20429;-83
2022/10/03 09:15:55;;;;;;;10.90;2.78;;;;;;;;;;4983253;28;20439;-83
2022/10/03 09:18:36;;;;;;;10.87;2.70;;;;;;;;;;4983975;28;20417;-82
2022/10/03 09:21:27;;;;;;;8.55;2.78;;;;;;;;;;4982900;28;20796;-82
2022/10/03 09:24:03;;;;;;;12.77;2.58;;;;;;;;;;4983141;28;20441;-83
2022/10/03 09:26:48;;;;;;;10.70;2.50;;;;;;;;;;4985095;28;20439;-82
2022/10/03 09:29:27;;;;;;;12.10;2.47;;;;;;;;;;4974848;28;20427;-81
2022/10/03 09:32:18;;;;;;;11.15;2.40;;;;;;;;;;4985319;28;20514;-82
2022/10/03 09:35:02;;;;;;;6.10;2.00;;;;;;;;;;4983335;28;20930;-84
2022/10/03 09:37:43;;;;;;;9.15;2.45;;;;;;;;;;4982571;28;20430;-85
2022/10/03 09:40:28;;;;;;;11.10;2.50;;;;;;;;;;4984199;28;20924;-83
2022/10/03 09:43:04;;;;;;;9.50;2.55;;;;;;;;;;4981308;28;20518;-83
2022/10/03 09:45:40;;;;;;;9.80;2.43;;;;;;;;;;4982491;28;20933;-82
2022/10/03 09:48:16;;;;;;;12.73;2.65;;;;;;;;;;4982609;28;20420;-83
2022/10/03 09:51:00;;;;;;;7.88;1.90;;;;;;;;;;4984443;28;20427;-83
2022/10/03 09:53:44;;;;;;;6.68;2.08;;;;;;;;;;4981048;28;20469;-82
2022/10/03 09:56:29;;;;;;;7.47;2.00;;;;;;;;;;4982496;28;20422;-83
2022/10/03 09:59:06;;;;;;;8.55;1.98;;;;;;;;;;4984044;28;20424;-84
2022/10/03 10:01:34;;;;;;;7.72;1.95;;;;;;;;;;4981654;28;20438;-83
2022/10/03 10:04:19;;;;;;;8.32;1.77;;;;;;;;;;4982872;28;20810;-83
2022/10/03 10:07:04;;;;;;;8.98;2.00;;;;;;;;;;4982844;28;20428;-84
2022/10/03 10:09:46;;;;;;;8.07;1.80;;;;;;;;;;4982284;28;20421;-84
2022/10/03 10:12:33;;;;;;;10.07;2.40;;;;;;;;;;4977062;28;20418;-83
2022/10/03 10:15:21;;;;;;;10.00;2.45;;;;;;;;;;4984302;28;20436;-82
2022/10/03 10:18:06;;;;;;;9.73;2.60;;;;;;;;;;4970310;28;20809;-82
2022/10/03 10:21:06;;;;;;;6.40;1.75;;;;;;;;;;4982609;28;20432;-83
2022/10/03 10:23:39;;;;;;;11.50;2.50;;;;;;;;;;4983956;28;20427;-82
2022/10/03 10:26:22;;;;;;;6.40;2.03;;;;;;;;;;4981502;28;20430;-82
2022/10/03 10:29:10;;;;;;;5.90;1.50;;;;;;;;;;4980831;28;21259;-81
2022/10/03 10:31:51;;;;;;;7.70;1.83;;;;;;;;;;4985977;28;20510;-82
2022/10/03 10:34:31;;;;;;;7.97;2.35;;;;;;;;;;4976493;28;20422;-82
2022/10/03 10:37:32;;;;;;;8.70;2.00;;;;;;;;;;4981908;28;20475;-81
2022/10/03 10:40:08;;;;;;;5.30;1.70;;;;;;;;;;4983940;28;20905;-84
2022/10/03 10:42:52;;;;;;;5.13;1.55;;;;;;;;;;4980773;28;20431;-83
2022/10/03 10:45:47;;;;;;;6.70;2.20;;;;;;;;;;4984216;28;20520;-83
2022/10/03 10:48:37;;;;;;;5.57;1.85;;;;;;;;;;4977865;28;20422;-82
2022/10/03 10:51:16;;;;;;;5.65;1.80;;;;;;;;;;4945755;28;20414;-82
2022/10/03 10:54:07;;;;;;;4.53;1.50;;;;;;;;;;4983686;28;20510;-81
2022/10/03 10:57:03;;;;;;;5.07;1.40;;;;;;;;;;4980628;28;20434;-82
2022/10/03 11:00:00;;;;;;;4.70;1.40;;;;;;;;;;4979749;28;20516;-83
2022/10/03 11:02:57;;;;;;;4.65;1.33;;;;;;;;;;4981349;28;20439;-83
2022/10/03 11:05:42;;;;;;;9.35;1.77;;;;;;;;;;4980056;28;20845;-81
2022/10/03 11:08:20;;;;;;;5.35;2.00;;;;;;;;;;4982313;28;20436;-83
2022/10/03 11:10:58;;;;;;;6.05;1.90;;;;;;;;;;4981909;28;20804;-83
2022/10/03 11:13:42;;;;;;;5.45;1.60;;;;;;;;;;4982198;28;20431;-81
2022/10/03 11:16:28;;;;;;;7.30;2.00;;;;;;;;;;4982757;28;20415;-81
2022/10/03 11:19:16;;;;;;;6.72;1.42;;;;;;;;;;4983148;28;20414;-84
2022/10/03 11:22:10;;;;;;;8.25;2.10;;;;;;;;;;4982418;28;20426;-84
2022/10/03 11:24:55;;;;;;;5.05;1.52;;;;;;;;;;4983205;28;20901;-82
2022/10/03 11:27:39;;;;;;;5.85;1.77;;;;;;;;;;4984799;28;20423;-85
2022/10/03 11:30:26;;;;;;;6.10;1.52;;;;;;;;;;4981521;28;20925;-84
2022/10/03 11:33:13;;;;;;;5.65;1.50;;;;;;;;;;4984169;28;20419;-83
2022/10/03 11:35:58;;;;;;;7.47;2.30;;;;;;;;;;4987205;28;20812;-82
2022/10/03 11:38:28;;;;;;;7.22;1.67;;;;;;;;;;4985809;28;20904;-82
2022/10/03 11:41:00;;;;;;;6.78;1.33;;;;;;;;;;4986023;28;20418;-81
2022/10/03 11:43:48;;;;;;;5.70;1.92;;;;;;;;;;4985703;28;20431;-81
2022/10/03 11:46:21;;;;;;;7.57;1.80;;;;;;;;;;4987128;28;20425;-82
2022/10/03 11:48:51;;;;;;;6.35;1.95;;;;;;;;;;4984771;28;20454;-82
2022/10/03 11:51:19;;;;;;;4.13;1.17;;;;;;;;;;4984304;28;20468;-81
2022/10/03 11:53:50;;;;;;;5.20;1.63;;;;;;;;;;4986156;28;20459;-82
2022/10/03 11:56:31;;;;;;;5.53;1.70;;;;;;;;;;4984048;28;20458;-83
2022/10/03 11:59:19;;;;;;;6.63;1.67;;;;;;;;;;4986734;28;20816;-81
2022/10/03 12:01:53;;;;;;;7.97;1.60;;;;;;;;;;4981605;28;21178;-83
2022/10/03 12:04:23;;;;;;;9.23;1.80;;;;;;;;;;4986726;28;20430;-80
2022/10/03 12:09:46;;;;;;;9.53;1.80;;;;;;;;;;4985583;28;20792;-81
2022/10/03 12:12:26;;;;;;;5.53;2.00;;;;;;;;;;5015769;28;20435;-83
2022/10/03 12:14:54;;;;;;;5.70;1.33;;;;;;;;;;4985385;28;20439;-80
2022/10/03 12:17:28;;;;;;;7.25;1.65;;;;;;;;;;4986555;28;20928;-81
2022/10/03 12:20:01;;;;;;;6.38;1.63;;;;;;;;;;4987375;28;20434;-81
2022/10/03 12:22:35;;;;;;;7.65;1.80;;;;;;;;;;5018896;28;20429;-83
2022/10/03 12:25:07;;;;;;;4.97;1.63;;;;;;;;;;5014289;28;20446;-83
2022/10/03 12:27:38;;;;;;;7.40;1.80;;;;;;;;;;4985520;28;20427;-83
2022/10/03 12:30:12;;;;;;;5.88;1.90;;;;;;;;;;4984712;28;20467;-82
2022/10/03 12:32:44;;;;;;;5.97;1.60;;;;;;;;;;4986547;28;20433;-83
2022/10/03 12:35:28;;;;;;;6.10;1.60;;;;;;;;;;4982537;28;20441;-82
2022/10/03 12:38:04;;;;;;;3.95;1.60;;;;;;;;;;4984305;28;20429;-83
2022/10/03 12:40:33;;;;;;;5.10;1.58;;;;;;;;;;4984189;28;20501;-83
2022/10/03 12:43:07;;;;;;;7.65;1.90;;;;;;;;;;4981635;28;20433;-83
2022/10/03 12:45:35;;;;;;;5.57;1.35;;;;;;;;;;5016160;28;20419;-83
2022/10/03 12:48:08;;;;;;;7.10;2.05;;;;;;;;;;4983010;28;20788;-83
2022/10/03 12:50:38;;;;;;;7.95;2.08;;;;;;;;;;4984123;28;20425;-83
2022/10/03 12:53:19;;;;;;;6.40;1.50;;;;;;;;;;4985283;28;20932;-83
2022/10/03 12:55:53;;;;;;;7.65;2.38;;;;;;;;;;5013058;28;20440;-82
2022/10/03 12:58:23;;;;;;;10.40;1.90;;;;;;;;;;4984677;28;20866;-83
2022/10/03 13:00:55;;;;;;;7.05;1.60;;;;;;;;;;4980698;28;20451;-83
2022/10/03 13:03:26;;;;;;;6.78;1.90;;;;;;;;;;4984656;28;20422;-82
2022/10/03 13:06:04;;;;;;;3.03;1.27;;;;;;;;;;4984737;28;20437;-82
2022/10/03 13:08:40;;;;;;;5.65;1.60;;;;;;;;;;4983616;28;20937;-82
2022/10/03 13:11:20;;;;;;;4.28;1.38;;;;;;;;;;4985272;28;20418;-82
2022/10/03 13:13:56;;;;;;;5.40;1.73;;;;;;;;;;4981810;28;20450;-82
2022/10/03 13:16:24;;;;;;;6.95;1.83;;;;;;;;;;4983020;28;20960;-82
2022/10/03 13:18:53;;;;;;;8.52;1.60;;;;;;;;;;4987318;28;20422;-83
2022/10/03 13:21:25;;;;;;;5.05;1.83;;;;;;;;;;4983150;28;20436;-83
2022/10/03 13:23:54;;;;;;;6.57;1.80;;;;;;;;;;4985858;28;20769;-82
2022/10/03 13:26:27;;;;;;;5.70;1.30;;;;;;;;;;4982991;28;20420;-83
2022/10/03 13:29:12;;;;;;;5.63;1.33;;;;;;;;;;4986082;28;20433;-82
2022/10/03 13:31:46;;;;;;;6.35;1.60;;;;;;;;;;4983215;28;20423;-83
2022/10/03 13:34:17;;;;;;;5.77;1.20;;;;;;;;;;4985361;28;20432;-83
2022/10/03 13:36:44;;;;;;;5.15;1.40;;;;;;;;;;4982646;28;20432;-83
2022/10/03 13:39:13;;;;;;;5.83;1.43;;;;;;;;;;4984665;28;20428;-82
2022/10/03 13:41:56;;;;;;;5.03;1.50;;;;;;;;;;4982352;28;20817;-82
2022/10/03 13:44:29;;;;;;;6.60;1.80;;;;;;;;;;4982520;28;20430;-82
2022/10/03 13:47:01;;;;;;;7.57;1.73;;;;;;;;;;4982690;28;20436;-82
2022/10/03 13:49:33;;;;;;;6.03;1.67;;;;;;;;;;4981529;28;20427;-82
2022/10/03 13:52:03;;;;;;;3.80;1.60;;;;;;;;;;4984174;28;20452;-83
2022/10/03 13:54:45;;;;;;;4.88;1.65;;;;;;;;;;4982210;28;20516;-83
2022/10/03 13:57:17;;;;;;;6.45;1.80;;;;;;;;;;4982320;28;20419;-82
2022/10/03 13:59:52;;;;;;;4.38;1.40;;;;;;;;;;4983370;28;20520;-82
2022/10/03 14:02:33;;;;;;;5.40;1.50;;;;;;;;;;4981603;28;20934;-83
2022/10/03 14:05:07;;;;;;;6.28;1.80;;;;;;;;;;4977086;28;20525;-82
2022/10/03 14:07:38;;;;;;;7.22;1.70;;;;;;;;;;4983433;28;20434;-82
2022/10/03 14:10:09;;;;;;;7.28;1.90;;;;;;;;;;4982529;28;20451;-82
2022/10/03 14:12:43;;;;;;;5.30;1.60;;;;;;;;;;4981903;28;20438;-82
2022/10/03 14:15:17;;;;;;;6.85;1.52;;;;;;;;;;4982958;28;20458;-81
2022/10/03 14:17:49;;;;;;;8.13;2.10;;;;;;;;;;4984561;28;20814;-82
2022/10/03 14:20:20;;;;;;;5.68;1.90;;;;;;;;;;4981760;28;20434;-82
2022/10/03 14:22:57;;;;;;;5.93;1.70;;;;;;;;;;4982519;28;20426;-86
2022/10/03 14:25:25;;;;;;;5.57;1.90;;;;;;;;;;4982665;28;20449;-82
2022/10/03 14:27:54;;;;;;;8.05;1.88;;;;;;;;;;4981290;28;20439;-81
2022/10/03 14:30:21;;;;;;;7.03;1.65;;;;;;;;;;4982580;28;20789;-81
2022/10/03 14:32:58;;;;;;;5.18;1.92;;;;;;;;;;4980527;28;20432;-82
2022/10/03 14:35:29;;;;;;;4.28;1.50;;;;;;;;;;4980571;28;20454;-83
2022/10/03 14:38:00;;;;;;;5.82;1.50;;;;;;;;;;4981358;28;20513;-82
2022/10/03 14:40:30;;;;;;;6.55;1.50;;;;;;;;;;4980745;28;20447;-81
2022/10/03 14:43:03;;;;;;;6.67;1.70;;;;;;;;;;5011482;28;20482;-82
2022/10/03 14:45:30;;;;;;;5.85;1.90;;;;;;;;;;4982561;28;20479;-82
2022/10/03 14:47:59;;;;;;;6.90;1.90;;;;;;;;;;5012550;28;20502;-82
2022/10/03 14:50:28;;;;;;;10.40;1.92;;;;;;;;;;4981391;28;20810;-83
2022/10/03 14:53:00;;;;;;;6.40;1.55;;;;;;;;;;4982964;28;20443;-82
2022/10/03 14:55:30;;;;;;;6.43;1.77;;;;;;;;;;4981336;28;21006;-83
2022/10/03 14:58:01;;;;;;;4.68;1.58;;;;;;;;;;4980664;28;20437;-81
2022/10/03 15:00:35;;;;;;;5.07;1.77;;;;;;;;;;4984706;28;20846;-82
2022/10/03 15:03:12;;;;;;;7.10;1.60;;;;;;;;;;4985114;28;20436;-82
2022/10/03 15:05:51;;;;;;;8.32;1.77;;;;;;;;;;4986993;28;20811;-82
2022/10/03 15:08:18;;;;;;;3.45;1.73;;;;;;;;;;4988655;28;20784;-81
2022/10/03 15:10:45;;;;;;;6.45;1.80;;;;;;;;;;4983195;28;20461;-83
2022/10/03 15:13:12;;;;;;;6.40;1.75;;;;;;;;;;4985682;28;20434;-83
2022/10/03 15:15:41;;;;;;;6.82;1.70;;;;;;;;;;5015258;28;20950;-82
2022/10/03 15:18:13;;;;;;;11.00;2.20;;;;;;;;;;4984876;28;20432;-83
2022/10/03 15:20:40;;;;;;;5.97;1.57;;;;;;;;;;4984345;28;20438;-82
2022/10/03 15:23:09;;;;;;;8.18;1.70;;;;;;;;;;4986118;28;20932;-81
2022/10/03 15:25:37;;;;;;;7.55;2.00;;;;;;;;;;4983891;28;20448;-82
2022/10/03 15:28:05;;;;;;;5.90;1.75;;;;;;;;;;5017372;28;20430;-83
2022/10/03 15:30:34;;;;;;;7.05;1.80;;;;;;;;;;4986346;28;20935;-82
2022/10/03 15:33:06;;;;;;;7.97;1.70;;;;;;;;;;4984464;28;20918;-82
2022/10/03 15:35:34;;;;;;;8.55;1.80;;;;;;;;;;4986185;28;20517;-83
2022/10/03 15:38:08;;;;;;;6.32;1.95;;;;;;;;;;4985298;28;20484;-82
2022/10/03 15:40:38;;;;;;;4.75;1.58;;;;;;;;;;4986298;28;20439;-82
2022/10/03 15:43:06;;;;;;;4.93;1.67;;;;;;;;;;4985261;28;20438;-82
2022/10/03 15:45:34;;;;;;;6.60;1.50;;;;;;;;;;4987082;28;20536;-82
2022/10/03 15:48:02;;;;;;;4.47;1.40;;;;;;;;;;4984961;28;20500;-82